Themis — 9V3558 — position and weather

sailwx.info

Track history (hours):
 
Tides and Currents Weather Stations Pressure Air Temp Water Temp Dewpoint Dewpoint Depression Visibility Wind Speed Wind Dir Waves Ship Positions

Themis

Last reported at 2018-May-23 12:42 UTC. Time now 2018-Jun-24 18:50 UTC.
Position S 31°53' E 115°32'.
Warning: this ship's position is 32 days out of date.

Length 200 m; draft 8.5 m.

Type: Cargo ship. MMSI: 563220000.

Date/timePositionNaut miles runAvg speedWind from/ knotsBaromVisibWave heightAir tempDewpointWater temp
2018-May-23 12:42S 31°53' E 115°32'516.5
2018-May-23 12:24S 31°56' E 115°37'615.5
2018-May-23 12:00S 31°60' E 115°42'4 7.5
2018-May-23 11:30S 32°03' E 115°44'1 2.3
2018-May-23 10:59S 32°02' E 115°45'0 0.0
2018-May-23 10:29S 32°02' E 115°45'0 0.0
2018-May-23 09:59S 32°02' E 115°45'0 0.0
2018-May-23 09:29S 32°02' E 115°45'0 0.0
2018-May-23 08:50S 32°02' E 115°45'0 0.0
2018-May-23 08:23S 32°02' E 115°45'0 0.0
2018-May-23 07:59S 32°02' E 115°45'0 0.0
2018-May-23 07:29S 32°02' E 115°45'0 0.0
2018-May-23 06:56S 32°02' E 115°45'0 0.0
2018-May-23 06:29S 32°02' E 115°45'0 0.0
2018-May-23 05:56S 32°02' E 115°45'0 0.0
2018-May-23 05:23S 32°02' E 115°45'0 0.0
2018-May-23 04:59S 32°02' E 115°45'0 0.0
2018-May-23 04:17S 32°02' E 115°45'0 0.0
2018-May-23 03:47S 32°02' E 115°45'0 0.0
2018-May-23 03:29S 32°02' E 115°45'0 0.0
2018-May-23 02:53S 32°02' E 115°45'0 0.0
2018-May-23 02:29S 32°02' E 115°45'0 0.0
2018-May-23 01:59S 32°02' E 115°45'0 0.0
2018-May-23 01:23S 32°02' E 115°45'0 0.0
2018-May-23 00:59S 32°02' E 115°45'0 0.0
2018-May-23 00:29S 32°02' E 115°45'0 0.0
2018-May-22 23:59S 32°02' E 115°45'0 0.0
2018-May-22 23:17S 32°02' E 115°45'0 0.0
2018-May-22 22:59S 32°02' E 115°45'0 0.0
2018-May-22 22:23S 32°02' E 115°45'0 0.0
2018-May-22 21:59S 32°02' E 115°45'0 0.0
2018-May-22 21:23S 32°02' E 115°45'0 0.0
2018-May-22 20:53S 32°02' E 115°45'0 0.6
2018-May-22 20:31S 32°03' E 115°45'3 6.0
2018-May-22 20:00S 32°03' E 115°41'4 7.2
2018-May-22 19:30S 31°59' E 115°42'4 7.3
2018-May-22 19:00S 31°57' E 115°39'4 8.6
2018-May-22 18:30S 31°54' E 115°35'5 8.8
2018-May-22 17:58S 31°52' E 115°30'4 8.6
2018-May-22 17:29S 31°51' E 115°25'4 8.2
2018-May-22 16:58S 31°52' E 115°21'8 8.5
2018-May-22 16:05S 31°60' E 115°18'2 8.5
2018-May-22 15:52S 32°01' E 115°17'2 6.1
2018-May-22 15:29S 32°03' E 115°16'612.0
2018-May-22 14:59S 32°09' E 115°14'812.7
2018-May-22 14:20S 32°17' E 115°10'514.5
2018-May-22 14:01S 32°21' E 115°08'714.9
2018-May-22 13:30S 32°28' E 115°05'815.0
2018-May-22 12:58S 32°36' E 115°02'  
2018-May-18 07:31S 38°11' E 144°55'117.6
2018-May-18 07:28S 38°10' E 144°55'817.2
2018-May-18 07:00S 38°02' E 144°55'914.6
2018-May-18 06:23S 37°53' E 144°56'3 0.2
2018-May-17 19:27S 37°50' E 144°54'1 1.5
2018-May-17 19:00S 37°51' E 144°55'5 9.5
2018-May-17 18:29S 37°56' E 144°56'815.9
2018-May-17 17:58S 38°04' E 144°56'818.0
2018-May-17 17:30S 38°12' E 144°55'177 9.7
2018-May-16 23:15S 38°25' E 148°41'415.7
2018-May-16 23:00S 38°23' E 148°45'815.4
2018-May-16 22:28S 38°18' E 148°53'917.1
2018-May-16 21:58S 38°13' E 149°03'268 7.3
2018-May-15 09:26S 34°09' E 151°19'818.2
2018-May-15 09:00S 34°04' E 151°27'917.9
2018-May-15 08:31S 33°57' E 151°34'917.8
2018-May-15 08:01S 33°51' E 151°41'917.9
2018-May-15 07:31S 33°44' E 151°48'3917.8
2018-May-15 05:17S 33°13' E 152°18'517.5
2018-May-15 05:00S 33°10' E 152°22'917.7
2018-May-15 04:30S 33°03' E 152°28'918.0
2018-May-15 04:00S 32°55' E 152°35'917.7
2018-May-15 03:30S 32°48' E 152°41'816.8
2018-May-15 03:00S 32°41' E 152°47'815.6
2018-May-15 02:30S 32°34' E 152°51'24814.4
2018-May-14 09:16S 28°32' E 153°55'415.3
2018-May-14 09:00S 28°28' E 153°55'815.2
2018-May-14 08:30S 28°21' E 153°56'815.9
2018-May-14 08:01S 28°13' E 153°57'816.0
2018-May-14 07:30S 28°05' E 153°57'816.5
2018-May-14 07:01S 27°57' E 153°55'5517.7
2018-May-14 03:55S 27°04' E 153°41'3011.5
2018-May-14 01:17S 26°52' E 153°09'517.3
2018-May-14 01:01S 26°56' E 153°12'816.4
2018-May-14 00:30S 27°03' E 153°17'816.0
2018-May-14 00:01S 27°10' E 153°21'815.4
2018-May-13 23:30S 27°16' E 153°16'714.4
2018-May-13 23:00S 27°22' E 153°10'1 1.5
2018-May-13 22:29S 27°23' E 153°10'0 0.0
2018-May-13 21:59S 27°23' E 153°10'0 0.0
2018-May-13 21:29S 27°23' E 153°10'0 0.0
2018-May-13 20:59S 27°23' E 153°10'0 0.0
2018-May-13 20:29S 27°23' E 153°10'0 0.0
2018-May-13 19:59S 27°23' E 153°10'0 0.0
2018-May-13 19:29S 27°23' E 153°10'0 0.0
2018-May-13 18:59S 27°23' E 153°10'0 0.0
2018-May-13 18:29S 27°23' E 153°10'0 0.0
2018-May-13 17:59S 27°23' E 153°10'0 0.0
2018-May-13 17:29S 27°23' E 153°10'0 0.0
2018-May-13 16:59S 27°23' E 153°10'0 0.0
2018-May-13 16:29S 27°23' E 153°10'0 0.0
2018-May-13 15:59S 27°23' E 153°10'0 0.0
2018-May-13 15:29S 27°23' E 153°10'0 0.0
2018-May-13 14:59S 27°23' E 153°10'0 0.0
2018-May-13 14:29S 27°23' E 153°10'0 0.0
2018-May-13 13:59S 27°23' E 153°10'0 0.0
2018-May-13 13:29S 27°23' E 153°10'0 0.0
2018-May-13 12:59S 27°23' E 153°10'  
Track history (hours):
 
Tides and Currents Weather Stations Pressure Air Temp Water Temp Dewpoint Dewpoint Depression Visibility Wind Speed Wind Dir Waves Ship Positions

Themis

Last reported at 2018-May-23 12:42 UTC. Time now 2018-Jun-24 18:50 UTC.
Position S 31°53' E 115°32'.
Warning: this ship's position is 32 days out of date.

Length 200 m; draft 8.5 m.

Type: Cargo ship. MMSI: 563220000.

Date/timePositionNaut miles runAvg speedWind from/ knotsBaromVisibWave heightAir tempDewpointWater temp
2018-May-23 12:42S 31°53' E 115°32'516.5
2018-May-23 12:24S 31°56' E 115°37'615.5
2018-May-23 12:00S 31°60' E 115°42'4 7.5
2018-May-23 11:30S 32°03' E 115°44'1 2.3
2018-May-23 10:59S 32°02' E 115°45'0 0.0
2018-May-23 10:29S 32°02' E 115°45'0 0.0
2018-May-23 09:59S 32°02' E 115°45'0 0.0
2018-May-23 09:29S 32°02' E 115°45'0 0.0
2018-May-23 08:50S 32°02' E 115°45'0 0.0
2018-May-23 08:23S 32°02' E 115°45'0 0.0
2018-May-23 07:59S 32°02' E 115°45'0 0.0
2018-May-23 07:29S 32°02' E 115°45'0 0.0
2018-May-23 06:56S 32°02' E 115°45'0 0.0
2018-May-23 06:29S 32°02' E 115°45'0 0.0
2018-May-23 05:56S 32°02' E 115°45'0 0.0
2018-May-23 05:23S 32°02' E 115°45'0 0.0
2018-May-23 04:59S 32°02' E 115°45'0 0.0
2018-May-23 04:17S 32°02' E 115°45'0 0.0
2018-May-23 03:47S 32°02' E 115°45'0 0.0
2018-May-23 03:29S 32°02' E 115°45'0 0.0
2018-May-23 02:53S 32°02' E 115°45'0 0.0
2018-May-23 02:29S 32°02' E 115°45'0 0.0
2018-May-23 01:59S 32°02' E 115°45'0 0.0
2018-May-23 01:23S 32°02' E 115°45'0 0.0
2018-May-23 00:59S 32°02' E 115°45'0 0.0
2018-May-23 00:29S 32°02' E 115°45'0 0.0
2018-May-22 23:59S 32°02' E 115°45'0 0.0
2018-May-22 23:17S 32°02' E 115°45'0 0.0
2018-May-22 22:59S 32°02' E 115°45'0 0.0
2018-May-22 22:23S 32°02' E 115°45'0 0.0
2018-May-22 21:59S 32°02' E 115°45'0 0.0
2018-May-22 21:23S 32°02' E 115°45'0 0.0
2018-May-22 20:53S 32°02' E 115°45'0 0.6
2018-May-22 20:31S 32°03' E 115°45'3 6.0
2018-May-22 20:00S 32°03' E 115°41'4 7.2
2018-May-22 19:30S 31°59' E 115°42'4 7.3
2018-May-22 19:00S 31°57' E 115°39'4 8.6
2018-May-22 18:30S 31°54' E 115°35'5 8.8
2018-May-22 17:58S 31°52' E 115°30'4 8.6
2018-May-22 17:29S 31°51' E 115°25'4 8.2
2018-May-22 16:58S 31°52' E 115°21'8 8.5
2018-May-22 16:05S 31°60' E 115°18'2 8.5
2018-May-22 15:52S 32°01' E 115°17'2 6.1
2018-May-22 15:29S 32°03' E 115°16'612.0
2018-May-22 14:59S 32°09' E 115°14'812.7
2018-May-22 14:20S 32°17' E 115°10'514.5
2018-May-22 14:01S 32°21' E 115°08'714.9
2018-May-22 13:30S 32°28' E 115°05'815.0
2018-May-22 12:58S 32°36' E 115°02'  
2018-May-18 07:31S 38°11' E 144°55'117.6
2018-May-18 07:28S 38°10' E 144°55'817.2
2018-May-18 07:00S 38°02' E 144°55'914.6
2018-May-18 06:23S 37°53' E 144°56'3 0.2
2018-May-17 19:27S 37°50' E 144°54'1 1.5
2018-May-17 19:00S 37°51' E 144°55'5 9.5
2018-May-17 18:29S 37°56' E 144°56'815.9
2018-May-17 17:58S 38°04' E 144°56'818.0
2018-May-17 17:30S 38°12' E 144°55'177 9.7
2018-May-16 23:15S 38°25' E 148°41'415.7
2018-May-16 23:00S 38°23' E 148°45'815.4
2018-May-16 22:28S 38°18' E 148°53'917.1
2018-May-16 21:58S 38°13' E 149°03'268 7.3
2018-May-15 09:26S 34°09' E 151°19'818.2
2018-May-15 09:00S 34°04' E 151°27'917.9
2018-May-15 08:31S 33°57' E 151°34'917.8
2018-May-15 08:01S 33°51' E 151°41'917.9
2018-May-15 07:31S 33°44' E 151°48'3917.8
2018-May-15 05:17S 33°13' E 152°18'517.5
2018-May-15 05:00S 33°10' E 152°22'917.7
2018-May-15 04:30S 33°03' E 152°28'918.0
2018-May-15 04:00S 32°55' E 152°35'917.7
2018-May-15 03:30S 32°48' E 152°41'816.8
2018-May-15 03:00S 32°41' E 152°47'815.6
2018-May-15 02:30S 32°34' E 152°51'24814.4
2018-May-14 09:16S 28°32' E 153°55'415.3
2018-May-14 09:00S 28°28' E 153°55'815.2
2018-May-14 08:30S 28°21' E 153°56'815.9
2018-May-14 08:01S 28°13' E 153°57'816.0
2018-May-14 07:30S 28°05' E 153°57'816.5
2018-May-14 07:01S 27°57' E 153°55'5517.7
2018-May-14 03:55S 27°04' E 153°41'3011.5
2018-May-14 01:17S 26°52' E 153°09'517.3
2018-May-14 01:01S 26°56' E 153°12'816.4
2018-May-14 00:30S 27°03' E 153°17'816.0
2018-May-14 00:01S 27°10' E 153°21'815.4
2018-May-13 23:30S 27°16' E 153°16'714.4
2018-May-13 23:00S 27°22' E 153°10'1 1.5
2018-May-13 22:29S 27°23' E 153°10'0 0.0
2018-May-13 21:59S 27°23' E 153°10'0 0.0
2018-May-13 21:29S 27°23' E 153°10'0 0.0
2018-May-13 20:59S 27°23' E 153°10'0 0.0
2018-May-13 20:29S 27°23' E 153°10'0 0.0
2018-May-13 19:59S 27°23' E 153°10'0 0.0
2018-May-13 19:29S 27°23' E 153°10'0 0.0
2018-May-13 18:59S 27°23' E 153°10'0 0.0
2018-May-13 18:29S 27°23' E 153°10'0 0.0
2018-May-13 17:59S 27°23' E 153°10'0 0.0
2018-May-13 17:29S 27°23' E 153°10'0 0.0
2018-May-13 16:59S 27°23' E 153°10'0 0.0
2018-May-13 16:29S 27°23' E 153°10'0 0.0
2018-May-13 15:59S 27°23' E 153°10'0 0.0
2018-May-13 15:29S 27°23' E 153°10'0 0.0
2018-May-13 14:59S 27°23' E 153°10'0 0.0
2018-May-13 14:29S 27°23' E 153°10'0 0.0
2018-May-13 13:59S 27°23' E 153°10'0 0.0
2018-May-13 13:29S 27°23' E 153°10'0 0.0
2018-May-13 12:59S 27°23' E 153°10'  

Dump ship's entire track history